Time;durP1;ratioP1;P1;durP2;ratioP2;P2;SDS_P1;SDS_P2;PMS_P1;PMS_P2;Temp;Humidity;BMP_temperature;BMP_pressure;BME280_temperature;BME280_humidity;BME280_pressure;Samples;Min_cycle;Max_cycle;Signal;HPM_P1;HPM_P2
2021/08/26 00:00:41;;;;;;;8.55;4.10;;;;;;;;;;5132667;27;20059;-71
2021/08/26 00:05:54;;;;;;;7.45;3.80;;;;;;;;;;5129105;27;20144;-71
2021/08/26 00:08:21;;;;;;;7.05;3.75;;;;;;;;;;5112238;28;20480;-71
2021/08/26 00:10:49;;;;;;;9.07;4.05;;;;;;;;;;5112697;28;20469;-71
2021/08/26 00:13:16;;;;;;;10.60;4.70;;;;;;;;;;5112075;28;20157;-71
2021/08/26 00:15:45;;;;;;;7.45;3.30;;;;;;;;;;5119120;27;20054;-71
2021/08/26 00:18:12;;;;;;;7.50;3.58;;;;;;;;;;5128129;27;20051;-71
2021/08/26 00:20:39;;;;;;;7.57;3.00;;;;;;;;;;5131094;27;20058;-71
2021/08/26 00:23:06;;;;;;;6.93;3.42;;;;;;;;;;5118514;27;20054;-71
2021/08/26 00:25:33;;;;;;;7.40;3.70;;;;;;;;;;5112176;28;20078;-71
2021/08/26 00:28:00;;;;;;;7.35;3.20;;;;;;;;;;5112378;28;20043;-71
2021/08/26 00:30:26;;;;;;;8.25;3.55;;;;;;;;;;5129626;27;20054;-71
2021/08/26 00:32:53;;;;;;;6.50;3.60;;;;;;;;;;5132067;27;20054;-71
2021/08/26 00:35:19;;;;;;;6.43;3.40;;;;;;;;;;5133126;27;20039;-71
2021/08/26 00:37:45;;;;;;;8.25;3.55;;;;;;;;;;5131698;27;20051;-71
2021/08/26 00:40:14;;;;;;;7.32;3.80;;;;;;;;;;5132726;27;20385;-70
2021/08/26 00:42:41;;;;;;;8.60;3.42;;;;;;;;;;5132615;27;20462;-70
2021/08/26 00:45:08;;;;;;;8.07;3.58;;;;;;;;;;5132681;27;20051;-70
2021/08/26 00:47:34;;;;;;;7.70;3.65;;;;;;;;;;5121821;28;20047;-70
2021/08/26 00:50:01;;;;;;;6.05;3.60;;;;;;;;;;5117647;28;20047;-70
2021/08/26 00:52:28;;;;;;;5.78;3.13;;;;;;;;;;5111972;28;20063;-70
2021/08/26 00:54:55;;;;;;;7.63;3.20;;;;;;;;;;5125441;28;20666;-70
2021/08/26 00:57:24;;;;;;;6.28;3.13;;;;;;;;;;5130849;28;20059;-70
2021/08/26 00:59:51;;;;;;;7.20;3.83;;;;;;;;;;5129364;28;20051;-70
2021/08/26 01:02:24;;;;;;;5.68;3.22;;;;;;;;;;5132599;28;20066;-70
2021/08/26 01:04:51;;;;;;;7.07;3.30;;;;;;;;;;5133312;28;20051;-69
2021/08/26 01:07:24;;;;;;;7.25;3.17;;;;;;;;;;5133476;28;20079;-70
2021/08/26 01:09:53;;;;;;;6.93;2.97;;;;;;;;;;5133490;28;20047;-70
2021/08/26 01:12:24;;;;;;;7.80;3.78;;;;;;;;;;5133420;28;20051;-70
2021/08/26 01:14:51;;;;;;;7.55;3.30;;;;;;;;;;5133058;28;20055;-69
2021/08/26 01:17:19;;;;;;;9.18;3.60;;;;;;;;;;5132992;28;20047;-69
2021/08/26 01:19:45;;;;;;;8.52;3.63;;;;;;;;;;5132880;28;20070;-70
2021/08/26 01:22:12;;;;;;;9.98;3.88;;;;;;;;;;5133039;28;20057;-70
2021/08/26 01:24:39;;;;;;;8.15;3.28;;;;;;;;;;5132698;28;20357;-70
2021/08/26 01:27:08;;;;;;;6.47;3.25;;;;;;;;;;5132964;28;20058;-69
2021/08/26 01:29:34;;;;;;;10.05;3.25;;;;;;;;;;5132799;28;20066;-70
2021/08/26 01:32:01;;;;;;;8.38;3.33;;;;;;;;;;5132848;28;20047;-70
2021/08/26 01:34:28;;;;;;;7.78;3.60;;;;;;;;;;5133123;28;20058;-69
2021/08/26 01:36:54;;;;;;;7.50;2.95;;;;;;;;;;5133264;28;20480;-69
2021/08/26 01:39:21;;;;;;;6.65;3.17;;;;;;;;;;5132916;28;20058;-70
2021/08/26 01:41:49;;;;;;;6.47;3.03;;;;;;;;;;5133023;28;20066;-70
2021/08/26 01:44:20;;;;;;;5.45;3.10;;;;;;;;;;5135407;27;20386;-70
2021/08/26 01:46:46;;;;;;;6.72;3.22;;;;;;;;;;5136766;27;20047;-70
2021/08/26 01:49:13;;;;;;;6.78;3.28;;;;;;;;;;5136785;27;20043;-69
2021/08/26 01:51:40;;;;;;;9.70;3.88;;;;;;;;;;5136768;27;20043;-69
2021/08/26 01:54:07;;;;;;;6.35;3.20;;;;;;;;;;5136762;27;20047;-69
2021/08/26 01:56:34;;;;;;;7.50;4.00;;;;;;;;;;5136209;27;20043;-70
2021/08/26 01:59:00;;;;;;;6.68;3.60;;;;;;;;;;5134959;27;20483;-70
2021/08/26 02:01:28;;;;;;;9.25;3.95;;;;;;;;;;5135783;27;20058;-70
2021/08/26 02:03:55;;;;;;;6.22;3.50;;;;;;;;;;5135879;27;20051;-70
2021/08/26 02:06:22;;;;;;;9.20;4.10;;;;;;;;;;5135767;27;20054;-70
2021/08/26 02:08:48;;;;;;;7.47;3.67;;;;;;;;;;5136315;27;20043;-70
2021/08/26 02:11:15;;;;;;;7.55;4.18;;;;;;;;;;5136085;27;20054;-70
2021/08/26 02:13:41;;;;;;;9.18;4.18;;;;;;;;;;5135194;27;20047;-70
2021/08/26 02:16:08;;;;;;;7.82;3.90;;;;;;;;;;5135715;27;20470;-70
2021/08/26 02:18:35;;;;;;;8.38;3.83;;;;;;;;;;5125240;27;20043;-70
2021/08/26 02:21:02;;;;;;;6.35;3.45;;;;;;;;;;5130743;27;20047;-70
2021/08/26 02:23:29;;;;;;;8.63;4.03;;;;;;;;;;5124350;27;20043;-70
2021/08/26 02:25:55;;;;;;;7.05;3.75;;;;;;;;;;5123023;27;20044;-70
2021/08/26 02:28:21;;;;;;;6.93;3.30;;;;;;;;;;5115252;28;20056;-70
2021/08/26 02:30:48;;;;;;;8.60;4.20;;;;;;;;;;5127077;27;20043;-70
2021/08/26 02:33:14;;;;;;;6.85;3.80;;;;;;;;;;5135593;27;20054;-70
2021/08/26 02:35:42;;;;;;;8.10;4.28;;;;;;;;;;5135987;27;20560;-70
2021/08/26 02:38:09;;;;;;;7.53;3.88;;;;;;;;;;5135664;27;20051;-70
2021/08/26 02:40:35;;;;;;;6.63;3.65;;;;;;;;;;5135521;27;20047;-70
2021/08/26 02:43:02;;;;;;;10.52;4.85;;;;;;;;;;5135790;27;20050;-70
2021/08/26 02:45:28;;;;;;;10.00;5.07;;;;;;;;;;5135541;27;20051;-70
2021/08/26 02:47:55;;;;;;;8.40;4.10;;;;;;;;;;5135613;27;20054;-70
2021/08/26 02:50:21;;;;;;;10.27;4.45;;;;;;;;;;5135541;27;20051;-70
2021/08/26 02:52:49;;;;;;;8.23;4.10;;;;;;;;;;5135497;27;20043;-70
2021/08/26 02:55:15;;;;;;;11.63;4.85;;;;;;;;;;5134925;27;20043;-70
2021/08/26 02:57:42;;;;;;;11.85;4.57;;;;;;;;;;5135883;27;20053;-70
2021/08/26 03:00:10;;;;;;;8.27;4.18;;;;;;;;;;5131316;27;20051;-70
2021/08/26 03:02:37;;;;;;;10.80;4.50;;;;;;;;;;5135093;27;20054;-70
2021/08/26 03:05:03;;;;;;;11.00;4.43;;;;;;;;;;5135094;27;20047;-70
2021/08/26 03:07:30;;;;;;;9.15;4.32;;;;;;;;;;5135231;27;20053;-70
2021/08/26 03:09:58;;;;;;;9.05;4.15;;;;;;;;;;5135131;27;20047;-70
2021/08/26 03:12:24;;;;;;;10.38;4.80;;;;;;;;;;5134894;27;20051;-70
2021/08/26 03:14:51;;;;;;;8.35;4.00;;;;;;;;;;5135117;27;20051;-70
2021/08/26 03:17:17;;;;;;;9.15;4.55;;;;;;;;;;5134777;27;20051;-69
2021/08/26 03:19:43;;;;;;;9.60;5.07;;;;;;;;;;5134660;27;20051;-69
2021/08/26 03:22:10;;;;;;;10.93;5.78;;;;;;;;;;5134973;27;20043;-69
2021/08/26 03:24:36;;;;;;;12.98;6.32;;;;;;;;;;5134830;27;20055;-70
2021/08/26 03:27:05;;;;;;;13.43;6.45;;;;;;;;;;5134319;27;20552;-70
2021/08/26 03:29:31;;;;;;;10.88;6.18;;;;;;;;;;5134702;27;20487;-70
2021/08/26 03:31:58;;;;;;;11.48;6.47;;;;;;;;;;5134534;27;20059;-70
2021/08/26 03:34:25;;;;;;;11.38;6.85;;;;;;;;;;5134420;27;20119;-70
2021/08/26 03:36:51;;;;;;;9.55;6.00;;;;;;;;;;5134077;27;20046;-70
2021/08/26 03:39:17;;;;;;;11.13;5.10;;;;;;;;;;5133994;27;20047;-70
2021/08/26 03:41:44;;;;;;;11.73;5.78;;;;;;;;;;5134262;27;20070;-69
2021/08/26 03:44:12;;;;;;;12.70;6.80;;;;;;;;;;5134438;27;20070;-69
2021/08/26 03:46:38;;;;;;;10.68;6.18;;;;;;;;;;5133976;27;20054;-69
2021/08/26 03:49:05;;;;;;;10.45;5.10;;;;;;;;;;5133589;27;20058;-69
2021/08/26 03:51:31;;;;;;;10.30;6.22;;;;;;;;;;5134332;27;20460;-70
2021/08/26 03:53:57;;;;;;;12.77;5.88;;;;;;;;;;5134073;27;20420;-70
2021/08/26 03:56:24;;;;;;;10.85;6.30;;;;;;;;;;5133654;27;20043;-69
2021/08/26 03:58:50;;;;;;;11.98;7.53;;;;;;;;;;5133686;27;20058;-69
2021/08/26 04:01:18;;;;;;;11.77;5.82;;;;;;;;;;5132646;27;20058;-69
2021/08/26 04:03:45;;;;;;;10.65;6.10;;;;;;;;;;5133903;27;20062;-69
2021/08/26 04:06:11;;;;;;;12.15;5.43;;;;;;;;;;5134107;27;20050;-69
2021/08/26 04:08:38;;;;;;;10.88;5.65;;;;;;;;;;5133434;27;20057;-69
2021/08/26 04:11:05;;;;;;;10.48;4.97;;;;;;;;;;5134184;27;20407;-69
2021/08/26 04:13:31;;;;;;;12.15;6.72;;;;;;;;;;5133568;27;20054;-69
2021/08/26 04:15:58;;;;;;;11.18;5.53;;;;;;;;;;5133818;27;20408;-69
2021/08/26 04:18:26;;;;;;;10.30;6.72;;;;;;;;;;5133362;27;20043;-69
2021/08/26 04:20:52;;;;;;;18.85;7.53;;;;;;;;;;5133356;27;20050;-69
2021/08/26 04:23:19;;;;;;;10.85;6.35;;;;;;;;;;5133359;27;20502;-69
2021/08/26 04:25:45;;;;;;;17.80;6.07;;;;;;;;;;5133849;27;20384;-69
2021/08/26 04:28:12;;;;;;;14.55;5.97;;;;;;;;;;5133413;27;20491;-69
2021/08/26 04:30:38;;;;;;;13.32;6.75;;;;;;;;;;5133408;27;20070;-69
2021/08/26 04:33:05;;;;;;;11.45;6.00;;;;;;;;;;5133070;27;20043;-69
2021/08/26 04:35:33;;;;;;;13.07;8.02;;;;;;;;;;5133529;27;20075;-69
2021/08/26 04:37:59;;;;;;;11.63;6.85;;;;;;;;;;5133214;27;20526;-69
2021/08/26 04:40:26;;;;;;;13.98;7.20;;;;;;;;;;5132980;27;20047;-69
2021/08/26 04:42:52;;;;;;;12.35;7.13;;;;;;;;;;5133083;27;20054;-69
2021/08/26 04:45:19;;;;;;;11.52;7.38;;;;;;;;;;5132834;27;20043;-69
2021/08/26 04:47:46;;;;;;;13.02;7.13;;;;;;;;;;5132620;27;20422;-70
2021/08/26 04:50:12;;;;;;;12.18;7.03;;;;;;;;;;5132839;28;20050;-69
2021/08/26 04:52:40;;;;;;;13.13;8.07;;;;;;;;;;5132623;28;20416;-68
2021/08/26 04:55:08;;;;;;;14.35;8.45;;;;;;;;;;5132766;28;20055;-68
2021/08/26 04:57:34;;;;;;;12.93;7.50;;;;;;;;;;5132731;28;20047;-68
2021/08/26 05:00:01;;;;;;;12.25;7.00;;;;;;;;;;5132646;28;20050;-69
2021/08/26 05:02:27;;;;;;;13.05;8.00;;;;;;;;;;5131967;28;20059;-69
2021/08/26 05:04:53;;;;;;;12.57;7.20;;;;;;;;;;5132528;28;20055;-69
2021/08/26 05:07:20;;;;;;;11.90;6.35;;;;;;;;;;5132651;28;20050;-69
2021/08/26 05:09:48;;;;;;;14.88;6.82;;;;;;;;;;5132982;28;20075;-69
2021/08/26 05:12:15;;;;;;;15.80;7.50;;;;;;;;;;5133092;28;20054;-68
2021/08/26 05:14:41;;;;;;;12.07;7.05;;;;;;;;;;5132714;28;20058;-69
2021/08/26 05:17:08;;;;;;;12.90;6.60;;;;;;;;;;5132315;28;20043;-69
2021/08/26 05:19:34;;;;;;;12.65;7.07;;;;;;;;;;5134922;27;20054;-68
2021/08/26 05:22:02;;;;;;;12.13;7.45;;;;;;;;;;5136536;27;20039;-68
2021/08/26 05:24:29;;;;;;;11.40;6.32;;;;;;;;;;5134205;27;20138;-69
2021/08/26 05:26:57;;;;;;;10.40;7.03;;;;;;;;;;5136943;27;20474;-70
2021/08/26 05:29:23;;;;;;;14.00;6.57;;;;;;;;;;5136884;27;20479;-69
2021/08/26 05:31:50;;;;;;;13.77;7.93;;;;;;;;;;5136529;27;20051;-69
2021/08/26 05:34:16;;;;;;;14.70;7.78;;;;;;;;;;5136413;27;20042;-69
2021/08/26 05:36:43;;;;;;;15.40;8.50;;;;;;;;;;5136468;27;20043;-69
2021/08/26 05:39:09;;;;;;;17.50;8.10;;;;;;;;;;5136271;27;20058;-69
2021/08/26 05:41:36;;;;;;;13.35;7.40;;;;;;;;;;5136476;27;20059;-69
2021/08/26 05:44:04;;;;;;;15.00;8.40;;;;;;;;;;5136598;27;20403;-69
2021/08/26 05:46:30;;;;;;;14.57;8.35;;;;;;;;;;5136056;27;20043;-69
2021/08/26 05:48:57;;;;;;;13.13;7.43;;;;;;;;;;5136308;27;20047;-69
2021/08/26 05:51:23;;;;;;;12.48;7.70;;;;;;;;;;5136306;27;20043;-69
2021/08/26 05:53:50;;;;;;;13.80;8.75;;;;;;;;;;5134579;27;20584;-69
2021/08/26 05:56:16;;;;;;;14.50;8.25;;;;;;;;;;5131811;27;20776;-69
2021/08/26 05:58:43;;;;;;;18.13;9.85;;;;;;;;;;5135729;27;20514;-69
2021/08/26 06:01:10;;;;;;;12.90;8.38;;;;;;;;;;5132901;27;20399;-69
2021/08/26 06:03:37;;;;;;;11.52;8.25;;;;;;;;;;5135366;27;20047;-69
2021/08/26 06:06:03;;;;;;;14.10;7.85;;;;;;;;;;5135865;27;20050;-69
2021/08/26 06:08:30;;;;;;;12.23;8.13;;;;;;;;;;5136161;27;20051;-69
2021/08/26 06:10:57;;;;;;;12.85;8.00;;;;;;;;;;5123085;27;20403;-69
2021/08/26 06:13:23;;;;;;;14.32;7.53;;;;;;;;;;5126535;27;20070;-69
2021/08/26 06:15:51;;;;;;;13.20;8.50;;;;;;;;;;5135653;27;20039;-69
2021/08/26 06:18:21;;;;;;;12.40;7.72;;;;;;;;;;5136096;27;20456;-69
2021/08/26 06:20:47;;;;;;;14.95;8.07;;;;;;;;;;5135882;27;20058;-69
2021/08/26 06:23:14;;;;;;;16.83;9.65;;;;;;;;;;5136071;27;20132;-70
2021/08/26 06:25:40;;;;;;;12.60;7.97;;;;;;;;;;5135448;27;20058;-69
2021/08/26 06:28:06;;;;;;;15.73;8.05;;;;;;;;;;5135217;27;20136;-69
2021/08/26 06:30:33;;;;;;;15.02;7.80;;;;;;;;;;5134453;27;20050;-70
2021/08/26 06:33:00;;;;;;;15.55;8.18;;;;;;;;;;5135234;27;20054;-70
2021/08/26 06:35:27;;;;;;;14.48;8.05;;;;;;;;;;5135588;27;20472;-69
2021/08/26 06:37:54;;;;;;;14.77;8.13;;;;;;;;;;5135647;27;20048;-70
2021/08/26 06:40:20;;;;;;;12.77;7.53;;;;;;;;;;5135759;27;20051;-70
2021/08/26 06:42:47;;;;;;;16.88;8.90;;;;;;;;;;5135344;27;20051;-70
2021/08/26 06:45:13;;;;;;;19.92;10.68;;;;;;;;;;5135117;27;20054;-70
2021/08/26 06:47:40;;;;;;;12.52;8.00;;;;;;;;;;5135626;27;20047;-70
2021/08/26 06:50:07;;;;;;;13.90;8.15;;;;;;;;;;5135250;27;20055;-67
2021/08/26 06:52:35;;;;;;;12.35;8.02;;;;;;;;;;5127685;27;20048;-67
2021/08/26 06:55:02;;;;;;;13.95;7.88;;;;;;;;;;5126137;27;20054;-70
2021/08/26 06:57:29;;;;;;;12.20;8.73;;;;;;;;;;5134960;27;20043;-70
2021/08/26 06:59:56;;;;;;;13.02;8.00;;;;;;;;;;5135456;27;20051;-70
2021/08/26 07:02:22;;;;;;;12.65;8.00;;;;;;;;;;5134618;27;20047;-67
2021/08/26 07:04:49;;;;;;;12.75;8.05;;;;;;;;;;5133764;27;20061;-70
2021/08/26 07:07:15;;;;;;;13.20;8.80;;;;;;;;;;5134713;27;20035;-70
2021/08/26 07:09:43;;;;;;;15.23;8.38;;;;;;;;;;5134920;27;20070;-70
2021/08/26 07:12:09;;;;;;;15.80;8.63;;;;;;;;;;5134787;27;20051;-70
2021/08/26 07:14:36;;;;;;;14.43;7.18;;;;;;;;;;5134609;27;20055;-70
2021/08/26 07:17:02;;;;;;;10.18;7.60;;;;;;;;;;5134736;27;20044;-70
2021/08/26 07:19:29;;;;;;;17.25;8.25;;;;;;;;;;5134925;27;20480;-70
2021/08/26 07:21:55;;;;;;;16.15;8.80;;;;;;;;;;5134652;27;20373;-69
2021/08/26 07:24:22;;;;;;;12.68;7.72;;;;;;;;;;5134913;27;20047;-70
2021/08/26 07:26:50;;;;;;;14.40;8.13;;;;;;;;;;5134614;27;20058;-68
2021/08/26 07:29:16;;;;;;;11.75;7.85;;;;;;;;;;5134299;27;20047;-67
2021/08/26 07:31:43;;;;;;;14.15;8.30;;;;;;;;;;5134378;27;20065;-70
2021/08/26 07:34:09;;;;;;;11.95;7.95;;;;;;;;;;5131965;27;20051;-70
2021/08/26 07:36:36;;;;;;;15.85;8.00;;;;;;;;;;5134724;27;20171;-70
2021/08/26 07:39:02;;;;;;;11.23;7.65;;;;;;;;;;5134414;27;20051;-70
2021/08/26 07:41:30;;;;;;;13.68;7.75;;;;;;;;;;5133776;27;20051;-69
2021/08/26 07:43:58;;;;;;;14.18;8.27;;;;;;;;;;5134241;27;20164;-69
2021/08/26 07:46:24;;;;;;;14.20;8.95;;;;;;;;;;5134014;27;20054;-69
2021/08/26 07:48:51;;;;;;;13.10;8.57;;;;;;;;;;5134140;27;20043;-69
2021/08/26 07:51:17;;;;;;;13.25;8.30;;;;;;;;;;5134086;27;20059;-69
2021/08/26 07:53:44;;;;;;;12.05;8.10;;;;;;;;;;5133505;27;20078;-69
2021/08/26 07:56:10;;;;;;;16.95;8.55;;;;;;;;;;5133739;27;20058;-69
2021/08/26 07:58:37;;;;;;;13.02;8.30;;;;;;;;;;5133742;27;20043;-67
2021/08/26 08:01:06;;;;;;;15.15;8.73;;;;;;;;;;5133266;27;20108;-69
2021/08/26 08:03:34;;;;;;;14.02;7.85;;;;;;;;;;5132450;27;20411;-69
2021/08/26 08:06:08;;;;;;;14.57;8.65;;;;;;;;;;5132283;27;20039;-67
2021/08/26 08:08:35;;;;;;;15.85;8.98;;;;;;;;;;5132609;27;20043;-69
2021/08/26 08:11:01;;;;;;;14.25;7.75;;;;;;;;;;5132247;27;20054;-69
2021/08/26 08:13:28;;;;;;;15.23;8.88;;;;;;;;;;5132240;27;20383;-67
2021/08/26 08:15:54;;;;;;;12.52;8.27;;;;;;;;;;5132352;27;20571;-67
2021/08/26 08:18:22;;;;;;;13.98;7.65;;;;;;;;;;5132208;27;20536;-67
2021/08/26 08:20:48;;;;;;;11.90;7.60;;;;;;;;;;5132236;27;20420;-69
2021/08/26 08:23:15;;;;;;;17.80;9.02;;;;;;;;;;5131938;27;20043;-70
2021/08/26 08:25:41;;;;;;;12.98;8.23;;;;;;;;;;5132102;27;20054;-70
2021/08/26 08:28:13;;;;;;;14.27;8.13;;;;;;;;;;5132302;27;20487;-69
2021/08/26 08:30:39;;;;;;;14.15;8.73;;;;;;;;;;5132598;27;20528;-69
2021/08/26 08:33:06;;;;;;;14.60;8.98;;;;;;;;;;5131980;27;20066;-69
2021/08/26 08:35:34;;;;;;;14.32;9.30;;;;;;;;;;5132424;27;20043;-70
2021/08/26 08:38:00;;;;;;;15.23;9.38;;;;;;;;;;5132170;27;20054;-70
2021/08/26 08:40:27;;;;;;;14.20;9.30;;;;;;;;;;5132704;27;20066;-70
2021/08/26 08:42:54;;;;;;;17.65;10.45;;;;;;;;;;5132897;27;20051;-69
2021/08/26 08:45:20;;;;;;;15.50;10.07;;;;;;;;;;5133262;27;20057;-69
2021/08/26 08:47:48;;;;;;;16.33;9.27;;;;;;;;;;5132687;27;20047;-69
2021/08/26 08:50:15;;;;;;;12.75;9.23;;;;;;;;;;5132496;27;20048;-70
2021/08/26 08:52:43;;;;;;;15.80;9.95;;;;;;;;;;5132464;27;20403;-69
2021/08/26 08:55:12;;;;;;;16.92;9.07;;;;;;;;;;5132598;28;20055;-69
2021/08/26 08:57:41;;;;;;;12.98;9.50;;;;;;;;;;5132785;28;20376;-69
2021/08/26 09:00:09;;;;;;;15.00;10.30;;;;;;;;;;5127418;28;20047;-69
2021/08/26 09:02:35;;;;;;;16.77;10.15;;;;;;;;;;5110668;28;20055;-69
2021/08/26 09:05:02;;;;;;;13.35;9.88;;;;;;;;;;5131717;28;20216;-70
2021/08/26 09:07:30;;;;;;;15.57;10.68;;;;;;;;;;5124079;28;20416;-69
2021/08/26 09:09:58;;;;;;;15.82;9.75;;;;;;;;;;5131770;28;20050;-69
2021/08/26 09:12:47;;;;;;;14.35;9.23;;;;;;;;;;5132270;28;20411;-70
2021/08/26 09:15:16;;;;;;;15.60;10.05;;;;;;;;;;5131101;28;20100;-69
2021/08/26 09:17:44;;;;;;;15.35;9.35;;;;;;;;;;5126004;27;20051;-69
2021/08/26 09:20:13;;;;;;;17.05;10.48;;;;;;;;;;5128178;27;20530;-69
2021/08/26 09:22:40;;;;;;;17.50;10.38;;;;;;;;;;5124537;28;20066;-69
2021/08/26 09:25:12;;;;;;;15.30;10.48;;;;;;;;;;5126394;28;20040;-69
2021/08/26 09:27:40;;;;;;;16.58;11.13;;;;;;;;;;5128575;28;20059;-69
2021/08/26 09:30:10;;;;;;;16.77;10.15;;;;;;;;;;5119286;28;20487;-69
2021/08/26 09:32:40;;;;;;;17.70;10.95;;;;;;;;;;5132523;28;20101;-70
2021/08/26 09:35:15;;;;;;;18.63;10.65;;;;;;;;;;5132308;28;20484;-70
2021/08/26 09:37:48;;;;;;;18.27;9.73;;;;;;;;;;5132405;28;20073;-70
2021/08/26 09:40:18;;;;;;;14.35;9.68;;;;;;;;;;5132596;28;20285;-70
2021/08/26 09:42:45;;;;;;;15.40;10.10;;;;;;;;;;5112514;28;20412;-70
2021/08/26 09:45:20;;;;;;;21.88;11.60;;;;;;;;;;5111795;28;20553;-69
2021/08/26 09:48:05;;;;;;;14.05;9.90;;;;;;;;;;5111987;28;20052;-69
2021/08/26 09:50:44;;;;;;;14.77;9.50;;;;;;;;;;5111663;28;20139;-69
2021/08/26 09:53:11;;;;;;;17.85;10.93;;;;;;;;;;5111598;28;20451;-69
2021/08/26 09:56:02;;;;;;;16.20;10.27;;;;;;;;;;5128256;27;20089;-69
2021/08/26 09:58:30;;;;;;;18.63;10.55;;;;;;;;;;5117069;28;20054;-69
2021/08/26 10:01:12;;;;;;;18.00;10.55;;;;;;;;;;5127438;28;20051;-69
2021/08/26 10:03:39;;;;;;;15.02;9.23;;;;;;;;;;5111531;28;20123;-68
2021/08/26 10:06:06;;;;;;;14.57;9.50;;;;;;;;;;5122322;27;20047;-68
2021/08/26 10:08:33;;;;;;;19.60;10.80;;;;;;;;;;5124758;27;20489;-70
2021/08/26 10:11:02;;;;;;;15.23;10.30;;;;;;;;;;5130388;27;20043;-70
2021/08/26 10:13:30;;;;;;;15.43;10.30;;;;;;;;;;5130109;27;20047;-69
2021/08/26 10:15:56;;;;;;;14.60;10.10;;;;;;;;;;5131100;27;20052;-70
2021/08/26 10:18:23;;;;;;;18.27;11.32;;;;;;;;;;5135423;27;20411;-68
2021/08/26 10:20:49;;;;;;;18.25;11.35;;;;;;;;;;5135256;27;20055;-71
2021/08/26 10:23:16;;;;;;;15.45;10.82;;;;;;;;;;5135425;27;20047;-69
2021/08/26 10:25:45;;;;;;;16.27;10.88;;;;;;;;;;5135002;27;20070;-69
2021/08/26 10:28:14;;;;;;;19.02;10.85;;;;;;;;;;5135236;27;20047;-69
2021/08/26 10:30:41;;;;;;;15.60;11.18;;;;;;;;;;5135513;27;20476;-69
2021/08/26 10:33:10;;;;;;;14.85;9.95;;;;;;;;;;5132709;27;20585;-69
2021/08/26 10:36:01;;;;;;;17.85;10.73;;;;;;;;;;5130556;27;20083;-69
2021/08/26 10:38:29;;;;;;;18.63;10.90;;;;;;;;;;5131866;27;20100;-69
2021/08/26 10:40:56;;;;;;;18.85;12.15;;;;;;;;;;5131330;27;20043;-69
2021/08/26 10:43:35;;;;;;;17.92;11.02;;;;;;;;;;5128681;27;20067;-69
2021/08/26 10:46:03;;;;;;;15.15;9.68;;;;;;;;;;5132708;27;20047;-69
2021/08/26 10:48:29;;;;;;;15.07;10.48;;;;;;;;;;5131351;27;20117;-68
2021/08/26 10:51:15;;;;;;;15.77;11.02;;;;;;;;;;5130875;27;20470;-69
2021/08/26 10:53:43;;;;;;;15.77;10.27;;;;;;;;;;5131589;27;20043;-69
2021/08/26 10:56:25;;;;;;;16.88;10.90;;;;;;;;;;5131011;27;20070;-69
2021/08/26 10:58:54;;;;;;;17.83;11.45;;;;;;;;;;5126811;27;20043;-69
2021/08/26 11:01:39;;;;;;;20.02;11.95;;;;;;;;;;5131258;27;20434;-69
2021/08/26 11:04:08;;;;;;;17.25;10.20;;;;;;;;;;5119893;27;20047;-69
2021/08/26 11:06:42;;;;;;;17.25;10.30;;;;;;;;;;5126526;27;20545;-70
2021/08/26 11:09:36;;;;;;;17.10;10.80;;;;;;;;;;5128451;27;20123;-70
2021/08/26 11:12:23;;;;;;;16.90;10.27;;;;;;;;;;5126401;27;20059;-70
2021/08/26 11:14:52;;;;;;;18.05;10.32;;;;;;;;;;5132526;27;20044;-70
2021/08/26 11:17:27;;;;;;;17.23;10.43;;;;;;;;;;5133151;27;20551;-70
2021/08/26 11:19:54;;;;;;;17.42;11.25;;;;;;;;;;5132394;27;20057;-68
2021/08/26 11:22:21;;;;;;;18.35;12.13;;;;;;;;;;5129554;27;20062;-68
2021/08/26 11:25:06;;;;;;;15.38;10.05;;;;;;;;;;5125871;27;20039;-68
2021/08/26 11:27:33;;;;;;;20.83;11.10;;;;;;;;;;5128264;27;20074;-68
2021/08/26 11:30:24;;;;;;;18.63;11.82;;;;;;;;;;5127058;27;20071;-69
2021/08/26 11:32:51;;;;;;;17.25;11.25;;;;;;;;;;5125278;27;20095;-68
2021/08/26 11:35:19;;;;;;;18.55;11.25;;;;;;;;;;5120976;27;20411;-69
2021/08/26 11:37:46;;;;;;;16.17;10.50;;;;;;;;;;5123970;27;20050;-70
2021/08/26 11:40:14;;;;;;;19.63;11.75;;;;;;;;;;5128554;27;20515;-69
2021/08/26 11:42:44;;;;;;;15.77;10.90;;;;;;;;;;5119854;27;20047;-69
2021/08/26 11:45:20;;;;;;;22.02;13.55;;;;;;;;;;5126902;27;20050;-68
2021/08/26 11:47:50;;;;;;;19.58;12.65;;;;;;;;;;5130867;27;20042;-69
2021/08/26 11:50:19;;;;;;;16.38;11.73;;;;;;;;;;5123953;27;20055;-69
2021/08/26 11:52:47;;;;;;;19.77;13.63;;;;;;;;;;5124272;27;20047;-70
2021/08/26 11:55:14;;;;;;;20.23;13.63;;;;;;;;;;5131996;27;20050;-68
2021/08/26 11:57:42;;;;;;;23.35;15.77;;;;;;;;;;5131970;27;20050;-68
2021/08/26 12:00:12;;;;;;;20.08;14.43;;;;;;;;;;5129666;27;20377;-69
2021/08/26 12:02:41;;;;;;;23.35;15.05;;;;;;;;;;5133637;27;20100;-68
2021/08/26 12:05:14;;;;;;;18.77;12.88;;;;;;;;;;5133650;27;20480;-68
2021/08/26 12:07:42;;;;;;;16.42;12.45;;;;;;;;;;5131360;27;20470;-68
2021/08/26 12:10:20;;;;;;;18.08;13.40;;;;;;;;;;5127904;27;20047;-69
2021/08/26 12:12:56;;;;;;;20.45;15.15;;;;;;;;;;5127358;27;20055;-69
2021/08/26 12:15:28;;;;;;;19.85;13.88;;;;;;;;;;5135071;27;20082;-69
2021/08/26 12:17:56;;;;;;;18.42;13.70;;;;;;;;;;5119063;27;20134;-69
2021/08/26 12:20:25;;;;;;;20.33;14.20;;;;;;;;;;5129845;27;20061;-69
2021/08/26 12:22:52;;;;;;;19.42;14.27;;;;;;;;;;5124853;27;20062;-69
2021/08/26 12:25:25;;;;;;;20.40;14.13;;;;;;;;;;5131361;27;20043;-69
2021/08/26 12:27:53;;;;;;;20.92;13.65;;;;;;;;;;5125268;27;20043;-69
2021/08/26 12:30:31;;;;;;;19.42;13.20;;;;;;;;;;5129020;27;20503;-69
2021/08/26 12:33:15;;;;;;;20.13;13.40;;;;;;;;;;5124917;27;20051;-69
2021/08/26 12:35:48;;;;;;;17.90;11.48;;;;;;;;;;5132285;27;20055;-69
2021/08/26 12:38:17;;;;;;;20.10;14.25;;;;;;;;;;5131812;27;20050;-69
2021/08/26 12:40:55;;;;;;;18.77;12.40;;;;;;;;;;5130530;27;20039;-69
2021/08/26 12:43:23;;;;;;;21.15;13.38;;;;;;;;;;5129709;27;20078;-69
2021/08/26 12:45:51;;;;;;;18.30;12.43;;;;;;;;;;5129658;27;20043;-69
2021/08/26 12:48:31;;;;;;;20.27;14.63;;;;;;;;;;5130794;27;20063;-69
2021/08/26 12:51:10;;;;;;;17.73;13.88;;;;;;;;;;5131404;27;20050;-69
2021/08/26 12:53:39;;;;;;;17.42;13.48;;;;;;;;;;5131853;27;20142;-69
2021/08/26 12:56:08;;;;;;;17.45;12.50;;;;;;;;;;5125429;28;20103;-69
2021/08/26 12:58:34;;;;;;;21.23;14.32;;;;;;;;;;5131356;28;20047;-69
2021/08/26 13:01:15;;;;;;;17.77;13.25;;;;;;;;;;5127469;28;20059;-69
2021/08/26 13:03:46;;;;;;;19.05;12.57;;;;;;;;;;5124733;28;20051;-69
2021/08/26 13:06:14;;;;;;;19.08;12.82;;;;;;;;;;5126272;28;20122;-69
2021/08/26 13:08:44;;;;;;;17.60;12.30;;;;;;;;;;5128744;28;20044;-69
2021/08/26 13:11:12;;;;;;;19.23;12.43;;;;;;;;;;5129084;28;20059;-69
2021/08/26 13:13:39;;;;;;;18.23;12.50;;;;;;;;;;5131811;28;20047;-69
2021/08/26 13:16:06;;;;;;;18.70;12.63;;;;;;;;;;5130497;28;20047;-69
2021/08/26 13:18:33;;;;;;;18.00;13.90;;;;;;;;;;5119524;28;20085;-69
2021/08/26 13:20:59;;;;;;;20.40;14.80;;;;;;;;;;5123392;28;20545;-69
2021/08/26 13:23:27;;;;;;;16.92;12.68;;;;;;;;;;5131457;28;20092;-69
2021/08/26 13:25:54;;;;;;;16.38;12.70;;;;;;;;;;5117628;28;20049;-69
2021/08/26 13:28:20;;;;;;;19.05;13.60;;;;;;;;;;5128139;28;20058;-69
2021/08/26 13:30:47;;;;;;;19.73;14.73;;;;;;;;;;5132048;28;20051;-69
2021/08/26 13:33:13;;;;;;;21.10;14.68;;;;;;;;;;5131801;28;20043;-69
2021/08/26 13:35:40;;;;;;;17.40;12.57;;;;;;;;;;5131758;28;20073;-70
2021/08/26 13:38:06;;;;;;;15.98;12.20;;;;;;;;;;5131646;28;20054;-69
2021/08/26 13:40:34;;;;;;;18.58;12.93;;;;;;;;;;5134755;27;20054;-69
2021/08/26 13:43:00;;;;;;;18.00;12.40;;;;;;;;;;5136162;27;20477;-69
2021/08/26 13:45:27;;;;;;;21.15;14.55;;;;;;;;;;5136147;27;20059;-69
2021/08/26 13:47:54;;;;;;;19.35;12.55;;;;;;;;;;5135986;27;20043;-70
2021/08/26 13:50:20;;;;;;;17.15;12.40;;;;;;;;;;5126895;27;20047;-70
2021/08/26 13:52:47;;;;;;;19.42;13.90;;;;;;;;;;5119850;27;20051;-70
2021/08/26 13:55:13;;;;;;;16.77;12.02;;;;;;;;;;5128444;27;20043;-70
2021/08/26 13:57:41;;;;;;;17.85;13.32;;;;;;;;;;5114995;28;20062;-70
2021/08/26 14:00:09;;;;;;;21.92;14.88;;;;;;;;;;5115212;28;20426;-70
2021/08/26 14:02:35;;;;;;;17.98;13.35;;;;;;;;;;5115010;28;20047;-70
2021/08/26 14:05:02;;;;;;;18.38;12.55;;;;;;;;;;5126209;27;20051;-70
2021/08/26 14:07:28;;;;;;;19.92;13.05;;;;;;;;;;5135562;27;20388;-70
2021/08/26 14:09:55;;;;;;;18.33;12.73;;;;;;;;;;5134853;27;20495;-70
2021/08/26 14:12:21;;;;;;;18.30;12.52;;;;;;;;;;5134623;27;20423;-70
2021/08/26 14:14:49;;;;;;;18.88;13.20;;;;;;;;;;5135440;27;20431;-70
2021/08/26 14:17:15;;;;;;;18.05;12.23;;;;;;;;;;5127518;27;20500;-70
2021/08/26 14:19:42;;;;;;;14.25;10.48;;;;;;;;;;5114568;28;20051;-70
2021/08/26 14:22:08;;;;;;;15.55;10.27;;;;;;;;;;5114854;28;20060;-70
2021/08/26 14:24:35;;;;;;;15.95;10.30;;;;;;;;;;5114639;28;20052;-70
2021/08/26 14:27:01;;;;;;;12.35;9.93;;;;;;;;;;5114340;28;20055;-70
2021/08/26 14:29:28;;;;;;;14.20;9.80;;;;;;;;;;5114538;28;20039;-70
2021/08/26 14:31:56;;;;;;;15.35;10.80;;;;;;;;;;5114513;28;20056;-70
2021/08/26 14:34:22;;;;;;;14.50;10.02;;;;;;;;;;5117398;27;20047;-70
2021/08/26 14:36:50;;;;;;;16.35;10.48;;;;;;;;;;5131070;27;20051;-70